Ruther Glen, VA (22546)

12:15 AM EDT on September 22, 2014 (GMT -0400)
Mantico Hill | Change Station
CLOSE
Current Station
Personal Weather Station
Location: Beaverdam, VA
Elevation: 265 ft
Nearby Weather Stations

Elev 265 ft 37.94 °N, 77.63 °W | Updated 3 seconds ago

Partly Cloudy
Partly Cloudy
74.1 °F
Feels Like 75 °F
N
0.0
Wind Variable Wind from SSE
Gusts 7.0 mph

Today
High -- | Low -- °F
--% Chance of Precip.
Yesterday
High -- | Low -- °F
Precip. -- in
6:57 AM 7:07 PM
Waning Crescent, 4% visible
Pressure 29.76 in
Visibility 10.0 miles
Clouds Scattered Clouds 10000 ft
Heat Index 75 °F
Dew Point 67 °F
Humidity 78%
Rainfall 0.00 in
Snow Depth Not available.
UV 0.0 out of 12
Pollen 5.20 out of 12
Air Quality Not available.
Flu Activity Not available.
METAR KEZF 220355Z AUTO 33005KT 10SM SCT100 24/18 A2976 RMK AO2 T02390175

More Conditions Fewer Conditions

Pressure 29.76 in
Visibility 10.0 miles
Clouds Scattered Clouds 10000 ft
Heat Index 75 °F
Dew Point 67 °F
Humidity 78%
Rainfall 0.00 in
Snow Depth Not available.
UV 0.0 out of 12
Pollen 5.20 out of 12
Air Quality Not available.
Flu Activity Not available.
METAR KEZF 220355Z AUTO 33005KT 10SM SCT100 24/18 A2976 RMK AO2 T02390175

More Conditions Fewer Conditions

10-Day Weather Forecast

Almanac

Astronomy

Sep. 22, 2014 Rise Set
Actual Time 6:57 AM EDT 7:07 PM EDT
Civil Twilight 6:31 AM EDT 7:33 PM EDT
Nautical Twilight 6:00 AM EDT 8:04 PM EDT
Astronomical Twilight 5:29 AM EDT 8:35 PM EDT
Moon 5:25 AM EDT 6:13 PM EDT
Length of Visible Light 13h 01m
Length of Day
12h 09m
Tomorrow will be 2m 26s shorter.
Waning Crescent, 4% of the Moon is Illuminated
Today
Waning Crescent
Sep 24
New
Oct 1
First Quarter
Oct 8
Full
Oct 15
Last Quarter

Yesterday's Extremes

State Highs State Lows

Community

WunderPhotos

Upload Photos

1,755,383 photos uploaded!

Nearby

Snow Depth

Station Depth Elevation
No new snow has been reported.

Earthquake Activity

City Distance Mag. Time & Date
No recent earthquake activity has been reported nearby.
Minimum magnitude displayed is 2.5.

Coastal Water Temperatures

Place Temperature
Washington, DC 75.0 °F
Lewisetta, VA 75.0 °F
Solomons Island, MD 75.9 °F

Nearby Weather Stations